createdAt,value
2019-02-09T00:00:30.162Z,78.02
2019-02-09T00:03:01.879Z,77.37
2019-02-09T00:05:33.398Z,77.43
2019-02-09T00:08:06.247Z,77.47
2019-02-09T00:10:37.716Z,77.14
2019-02-09T00:13:09.299Z,77.58
2019-02-09T00:15:40.914Z,77.57
2019-02-09T00:18:12.340Z,77.76
2019-02-09T00:20:43.832Z,78.51
2019-02-09T00:23:15.314Z,77.78
2019-02-09T00:25:46.862Z,77.87
2019-02-09T00:28:18.332Z,77.75
2019-02-09T00:30:49.826Z,78.13
2019-02-09T00:33:21.266Z,77.65
2019-02-09T00:35:52.717Z,78.00
2019-02-09T00:38:24.148Z,78.08
2019-02-09T00:40:55.632Z,79.83
2019-02-09T00:43:27.074Z,78.90
2019-02-09T00:45:58.540Z,78.87
2019-02-09T00:48:29.975Z,79.17
2019-02-09T00:51:01.478Z,78.79
2019-02-09T00:53:32.916Z,78.96
2019-02-09T00:56:04.472Z,78.97
2019-02-09T00:58:36.013Z,78.92
2019-02-09T01:01:07.540Z,80.58
2019-02-09T01:03:39.003Z,79.05
2019-02-09T01:06:10.452Z,78.83
2019-02-09T01:08:41.889Z,78.45
2019-02-09T01:11:13.441Z,78.63
2019-02-09T01:13:44.882Z,78.23
2019-02-09T01:16:16.333Z,78.03
2019-02-09T01:18:47.767Z,78.11
2019-02-09T01:21:19.217Z,77.27
2019-02-09T01:23:50.654Z,77.20
2019-02-09T01:26:22.068Z,78.28
2019-02-09T01:28:53.491Z,79.13
2019-02-09T01:31:24.966Z,77.52
2019-02-09T01:33:56.392Z,78.33
2019-02-09T01:36:27.886Z,77.58
2019-02-09T01:38:59.290Z,77.34
2019-02-09T01:41:30.762Z,76.91
2019-02-09T01:44:02.208Z,78.35
2019-02-09T01:46:33.730Z,77.19
2019-02-09T01:49:05.180Z,76.48
2019-02-09T01:51:36.660Z,76.23
2019-02-09T01:54:08.101Z,75.56
2019-02-09T01:56:39.574Z,75.54
2019-02-09T01:59:10.952Z,75.52
2019-02-09T02:01:42.510Z,75.24
2019-02-09T02:04:13.902Z,75.27
2019-02-09T02:06:45.375Z,76.21
2019-02-09T02:09:16.741Z,76.65
2019-02-09T02:11:48.208Z,76.17
2019-02-09T02:14:19.624Z,76.05
2019-02-09T02:16:51.070Z,75.69
2019-02-09T02:19:22.549Z,75.76
2019-02-09T02:21:53.974Z,76.62
2019-02-09T02:24:25.396Z,76.02
2019-02-09T02:26:56.850Z,76.47
2019-02-09T02:29:28.278Z,75.23
2019-02-09T02:31:59.736Z,75.75
2019-02-09T02:34:31.197Z,75.23
2019-02-09T02:37:02.541Z,76.21
2019-02-09T02:39:34.034Z,74.97
2019-02-09T02:42:05.622Z,75.12
2019-02-09T02:44:37.027Z,76.23
2019-02-09T02:47:08.645Z,76.56
2019-02-09T02:49:40.066Z,76.64
2019-02-09T02:52:11.547Z,76.51
2019-02-09T02:54:43.010Z,75.92
2019-02-09T02:57:15.688Z,75.88
2019-02-09T02:59:48.995Z,76.16
2019-02-09T03:02:20.412Z,76.24
2019-02-09T03:04:51.901Z,75.86
2019-02-09T03:07:23.403Z,76.90
2019-02-09T03:09:54.881Z,76.06
2019-02-09T03:12:26.314Z,75.53
2019-02-09T03:14:57.820Z,76.30
2019-02-09T03:17:29.255Z,75.71
2019-02-09T03:20:00.703Z,75.28
2019-02-09T03:22:32.206Z,75.08
2019-02-09T03:25:03.683Z,75.79
2019-02-09T03:27:35.163Z,76.13
2019-02-09T03:30:09.208Z,75.46
2019-02-09T03:32:40.783Z,74.57
2019-02-09T03:35:12.736Z,75.37
2019-02-09T03:37:44.411Z,75.64
2019-02-09T03:40:18.692Z,76.04
2019-02-09T03:42:50.247Z,75.49
2019-02-09T03:45:28.392Z,75.69
2019-02-09T03:48:00.130Z,76.69
2019-02-09T03:50:32.528Z,75.92
2019-02-09T03:53:04.441Z,75.89
2019-02-09T03:55:35.903Z,75.19
2019-02-09T03:58:07.517Z,75.12
2019-02-09T04:00:38.975Z,74.43
2019-02-09T04:03:11.503Z,74.70
2019-02-09T04:05:43.076Z,75.00
2019-02-09T04:08:16.491Z,75.37
2019-02-09T04:10:47.960Z,75.81
2019-02-09T04:13:19.425Z,75.97
2019-02-09T04:15:50.858Z,76.36
2019-02-09T04:18:22.355Z,75.65
2019-02-09T04:20:53.917Z,76.92
2019-02-09T04:23:25.482Z,77.30
2019-02-09T04:26:00.255Z,77.01
2019-02-09T04:28:32.581Z,77.48
2019-02-09T04:31:06.538Z,77.75
2019-02-09T04:33:37.265Z,77.30
2019-02-09T04:36:08.672Z,76.79
2019-02-09T04:38:40.066Z,76.56
2019-02-09T04:41:12.501Z,74.63
2019-02-09T04:43:43.933Z,70.87
2019-02-09T04:46:15.354Z,69.06
2019-02-09T04:48:46.805Z,68.87
2019-02-09T04:51:18.253Z,68.08
2019-02-09T04:53:49.677Z,67.69
2019-02-09T04:56:21.039Z,66.45
2019-02-09T04:58:53.441Z,65.37
2019-02-09T05:01:24.897Z,65.56
2019-02-09T05:03:56.338Z,65.34
2019-02-09T05:06:27.778Z,64.43
2019-02-09T05:08:59.218Z,63.02
2019-02-09T05:11:30.649Z,63.38
2019-02-09T05:14:02.123Z,63.55
2019-02-09T05:16:33.548Z,64.06
2019-02-09T05:19:04.989Z,62.90
2019-02-09T05:21:36.315Z,63.36
2019-02-09T05:24:07.829Z,63.89
2019-02-09T05:26:39.185Z,66.15
2019-02-09T05:29:10.644Z,66.36
2019-02-09T05:31:41.966Z,66.97
2019-02-09T05:34:13.464Z,65.42
2019-02-09T05:36:44.897Z,66.82
2019-02-09T05:39:16.328Z,65.80
2019-02-09T05:41:47.866Z,66.55
2019-02-09T05:44:19.337Z,66.75
2019-02-09T05:46:50.764Z,64.11
2019-02-09T05:49:22.234Z,63.91
2019-02-09T05:51:53.676Z,64.21
2019-02-09T05:54:25.168Z,63.96
2019-02-09T05:56:56.616Z,63.93
2019-02-09T05:59:28.048Z,64.76
2019-02-09T06:01:59.503Z,64.09
2019-02-09T06:04:30.945Z,64.30
2019-02-09T06:07:02.358Z,65.06
2019-02-09T06:09:33.824Z,63.97
2019-02-09T06:12:05.357Z,64.42
2019-02-09T06:14:38.900Z,65.82
2019-02-09T06:17:10.335Z,63.88
2019-02-09T06:19:41.798Z,59.98
2019-02-09T06:22:13.259Z,60.85
2019-02-09T06:24:44.715Z,58.46
2019-02-09T06:27:16.158Z,59.15
2019-02-09T06:29:47.603Z,57.26
2019-02-09T06:32:19.046Z,58.21
2019-02-09T06:34:50.552Z,58.43
2019-02-09T06:37:21.988Z,58.38
2019-02-09T06:39:53.547Z,60.77
2019-02-09T06:42:25.002Z,65.06
2019-02-09T06:44:56.468Z,68.79
2019-02-09T06:47:27.925Z,72.19
2019-02-09T06:49:59.409Z,74.23
2019-02-09T06:52:32.309Z,76.11
2019-02-09T06:55:04.096Z,77.28
2019-02-09T06:57:35.531Z,78.41
2019-02-09T07:00:10.078Z,78.14
2019-02-09T07:02:41.499Z,79.29
2019-02-09T07:05:20.450Z,79.77
2019-02-09T07:07:51.911Z,80.09
2019-02-09T07:10:24.614Z,79.35
2019-02-09T07:12:55.986Z,79.14
2019-02-09T07:15:29.026Z,78.92
2019-02-09T07:18:00.452Z,79.21
2019-02-09T07:20:31.869Z,79.04
2019-02-09T07:23:15.290Z,78.62
2019-02-09T07:25:46.757Z,77.69
2019-02-09T07:28:18.186Z,78.02
2019-02-09T07:30:49.558Z,77.51
2019-02-09T07:33:21.080Z,77.32
2019-02-09T07:35:52.694Z,77.49
2019-02-09T07:38:24.095Z,77.07
2019-02-09T07:40:55.550Z,76.64
2019-02-09T07:43:26.940Z,76.46
2019-02-09T07:45:58.452Z,76.12
2019-02-09T07:48:29.916Z,76.26
2019-02-09T07:51:01.285Z,76.30
2019-02-09T07:53:32.714Z,76.37
2019-02-09T07:56:04.206Z,76.01
2019-02-09T07:58:35.698Z,75.74
2019-02-09T08:01:07.275Z,75.74
2019-02-09T08:03:38.643Z,75.41
2019-02-09T08:06:10.400Z,75.43
2019-02-09T08:08:41.838Z,75.42
2019-02-09T08:11:14.859Z,74.85
2019-02-09T08:13:46.338Z,71.77
2019-02-09T08:16:17.782Z,70.74
2019-02-09T08:18:49.220Z,71.27
2019-02-09T08:21:20.689Z,71.00
2019-02-09T08:23:52.233Z,70.15
2019-02-09T08:26:23.928Z,66.28
2019-02-09T08:28:55.361Z,67.35
2019-02-09T08:31:27.916Z,66.20
2019-02-09T08:33:59.354Z,66.98
2019-02-09T08:36:30.840Z,67.36
2019-02-09T08:39:02.282Z,68.22
2019-02-09T08:41:35.362Z,69.49
2019-02-09T08:44:06.811Z,70.20
2019-02-09T08:46:38.260Z,70.17
2019-02-09T08:49:09.691Z,71.37
2019-02-09T08:51:41.262Z,70.91
2019-02-09T08:54:12.716Z,70.32
2019-02-09T08:56:45.219Z,70.44
2019-02-09T08:59:16.646Z,69.51
2019-02-09T09:01:48.072Z,68.60
2019-02-09T09:04:19.580Z,69.18
2019-02-09T09:06:51.048Z,67.56
2019-02-09T09:09:22.515Z,68.09
2019-02-09T09:11:54.186Z,67.03
2019-02-09T09:14:25.603Z,66.76
2019-02-09T09:16:57.106Z,65.54
2019-02-09T09:19:28.579Z,65.88
2019-02-09T09:21:59.949Z,61.94
2019-02-09T09:24:31.452Z,58.07
2019-02-09T09:27:02.965Z,59.69
2019-02-09T09:29:34.400Z,64.36
2019-02-09T09:32:06.054Z,65.92
2019-02-09T09:34:37.474Z,66.66
2019-02-09T09:37:08.948Z,66.84
2019-02-09T09:39:40.387Z,67.20
2019-02-09T09:42:11.851Z,66.74
2019-02-09T09:44:43.336Z,66.45
2019-02-09T09:47:14.842Z,66.33
2019-02-09T09:49:46.436Z,65.52
2019-02-09T09:52:19.574Z,65.86
2019-02-09T09:54:51.022Z,64.56
2019-02-09T09:57:22.511Z,64.68
2019-02-09T09:59:53.971Z,64.31
2019-02-09T10:02:25.474Z,64.36
2019-02-09T10:04:56.904Z,64.87
2019-02-09T10:07:28.401Z,63.71
2019-02-09T10:09:59.847Z,62.98
2019-02-09T10:12:32.809Z,62.92
2019-02-09T10:15:04.615Z,62.19
2019-02-09T10:17:36.091Z,58.31
2019-02-09T10:20:10.727Z,58.56
2019-02-09T10:22:42.234Z,60.04
2019-02-09T10:25:14.723Z,59.86
2019-02-09T10:27:46.260Z,59.78
2019-02-09T10:30:20.869Z,57.64
2019-02-09T10:32:52.526Z,57.76
2019-02-09T10:35:24.471Z,59.70
2019-02-09T10:37:57.083Z,60.34
2019-02-09T10:40:31.117Z,60.62
2019-02-09T10:43:03.578Z,61.73
2019-02-09T10:45:37.487Z,62.28
2019-02-09T10:48:09.623Z,62.35
2019-02-09T10:50:46.745Z,60.90
2019-02-09T10:53:19.627Z,60.60
2019-02-09T10:55:51.076Z,60.31
2019-02-09T10:58:22.559Z,58.82
2019-02-09T11:01:17.914Z,59.00
2019-02-09T11:03:49.482Z,58.84
2019-02-09T11:06:20.963Z,59.12
2019-02-09T11:08:52.411Z,57.87
2019-02-09T11:11:23.850Z,57.89
2019-02-09T11:13:55.421Z,57.82
2019-02-09T11:16:26.861Z,57.94
2019-02-09T11:18:58.312Z,58.58
2019-02-09T11:21:29.881Z,59.71
2019-02-09T11:24:01.401Z,59.32
2019-02-09T11:26:33.036Z,59.21
2019-02-09T11:29:04.471Z,59.80
2019-02-09T11:31:35.916Z,59.78
2019-02-09T11:34:08.007Z,59.87
2019-02-09T11:36:39.472Z,60.18
2019-02-09T11:39:11.027Z,61.04
2019-02-09T11:41:45.305Z,60.68
2019-02-09T11:44:16.813Z,60.70
2019-02-09T11:46:50.299Z,60.00
2019-02-09T11:49:21.752Z,60.51
2019-02-09T11:51:53.170Z,60.20
2019-02-09T11:54:24.632Z,59.62
2019-02-09T11:56:56.168Z,59.83
2019-02-09T11:59:27.669Z,59.60
2019-02-09T12:01:59.156Z,59.59
2019-02-09T12:04:30.602Z,59.98
2019-02-09T12:07:02.136Z,60.51
2019-02-09T12:09:33.573Z,60.15
2019-02-09T12:12:05.431Z,60.41
2019-02-09T12:14:37.484Z,60.16
2019-02-09T12:17:08.949Z,59.96
2019-02-09T12:19:43.225Z,59.65
2019-02-09T12:22:14.695Z,58.98
2019-02-09T12:24:46.158Z,59.03
2019-02-09T12:27:17.579Z,59.01
2019-02-09T12:29:50.142Z,59.26
2019-02-09T12:32:21.580Z,59.52
2019-02-09T12:34:53.078Z,59.11
2019-02-09T12:37:24.517Z,59.17
2019-02-09T12:39:55.978Z,58.69
2019-02-09T12:42:27.438Z,58.27
2019-02-09T12:44:58.925Z,59.29
2019-02-09T12:47:30.370Z,59.22
2019-02-09T12:50:01.928Z,59.44
2019-02-09T12:52:33.453Z,59.73
2019-02-09T12:55:05.458Z,59.71
2019-02-09T12:57:42.007Z,60.16
2019-02-09T13:00:28.983Z,60.36
2019-02-09T13:03:03.535Z,60.17
2019-02-09T13:05:34.981Z,60.71
2019-02-09T13:08:06.434Z,60.66
2019-02-09T13:10:37.959Z,60.29
2019-02-09T13:13:11.827Z,60.54
2019-02-09T13:15:43.335Z,60.39
2019-02-09T13:18:14.895Z,60.60
2019-02-09T13:20:46.389Z,60.94
2019-02-09T13:23:17.831Z,60.33
2019-02-09T13:25:49.309Z,61.31
2019-02-09T13:28:20.757Z,61.99
2019-02-09T13:30:53.443Z,61.10
2019-02-09T13:33:24.862Z,61.04
2019-02-09T13:35:56.358Z,61.35
2019-02-09T13:38:27.808Z,61.98
2019-02-09T13:40:59.276Z,62.63
2019-02-09T13:43:30.764Z,62.37
2019-02-09T13:46:03.292Z,61.72
2019-02-09T13:48:34.761Z,62.08
2019-02-09T13:51:06.230Z,62.67
2019-02-09T13:53:39.332Z,62.23
2019-02-09T13:56:10.800Z,62.19
2019-02-09T13:58:42.319Z,63.21
2019-02-09T14:01:13.804Z,62.45
2019-02-09T14:03:48.563Z,61.70
2019-02-09T14:06:20.034Z,61.90
2019-02-09T14:08:51.554Z,61.64
2019-02-09T14:11:23.913Z,62.09
2019-02-09T14:13:58.547Z,62.14
2019-02-09T14:16:30.046Z,62.58
2019-02-09T14:19:01.852Z,62.15
2019-02-09T14:21:33.320Z,62.29
2019-02-09T14:24:05.293Z,62.25
2019-02-09T14:26:42.145Z,62.00
2019-02-09T14:29:15.950Z,61.64
2019-02-09T14:31:47.422Z,60.96
2019-02-09T14:34:18.909Z,61.40
2019-02-09T14:36:50.344Z,61.06
2019-02-09T14:39:21.794Z,61.05
2019-02-09T14:41:55.991Z,60.84
2019-02-09T14:44:27.433Z,60.73
2019-02-09T14:46:58.961Z,61.01
2019-02-09T14:49:31.003Z,60.71
2019-02-09T14:52:04.909Z,60.44
2019-02-09T14:54:39.336Z,61.09
2019-02-09T14:57:10.895Z,60.71
2019-02-09T14:59:42.322Z,60.91
2019-02-09T15:02:15.344Z,60.80
2019-02-09T15:04:49.604Z,60.51
2019-02-09T15:07:20.982Z,61.08
2019-02-09T15:09:52.404Z,60.90
2019-02-09T15:12:23.937Z,61.54
2019-02-09T15:14:55.410Z,61.32
2019-02-09T15:17:26.878Z,61.48
2019-02-09T15:19:58.235Z,61.57
2019-02-09T15:22:31.946Z,62.23
2019-02-09T15:25:03.440Z,62.06
2019-02-09T15:27:34.920Z,62.15
2019-02-09T15:30:09.198Z,61.71
2019-02-09T15:32:40.705Z,61.84
2019-02-09T15:35:14.149Z,61.84
2019-02-09T15:37:45.672Z,63.29
2019-02-09T15:40:18.999Z,63.05
2019-02-09T15:42:50.454Z,62.40
2019-02-09T15:45:22.116Z,62.79
2019-02-09T15:47:53.628Z,62.68
2019-02-09T15:50:25.083Z,63.31
2019-02-09T15:52:57.711Z,62.93
2019-02-09T15:55:29.067Z,62.66
2019-02-09T15:58:00.641Z,62.74
2019-02-09T16:00:32.104Z,63.09
2019-02-09T16:03:03.746Z,63.88
2019-02-09T16:05:35.180Z,62.95
2019-02-09T16:08:09.103Z,62.92
2019-02-09T16:10:40.505Z,63.36
2019-02-09T16:13:12.004Z,63.50
2019-02-09T16:15:43.591Z,63.20
2019-02-09T16:18:15.008Z,63.46
2019-02-09T16:20:46.456Z,63.55
2019-02-09T16:23:17.926Z,63.95
2019-02-09T16:25:49.383Z,64.12
2019-02-09T16:28:21.932Z,64.12
2019-02-09T16:30:53.361Z,64.22
2019-02-09T16:33:24.822Z,64.31
2019-02-09T16:35:56.290Z,65.21
2019-02-09T16:38:27.804Z,65.18
2019-02-09T16:40:59.250Z,65.57
2019-02-09T16:43:30.741Z,65.32
2019-02-09T16:46:02.187Z,65.65
2019-02-09T16:48:33.651Z,66.47
2019-02-09T16:51:05.255Z,66.19
2019-02-09T16:53:36.701Z,66.58
2019-02-09T16:56:08.255Z,66.76
2019-02-09T16:58:39.732Z,66.89
2019-02-09T17:01:11.174Z,66.36
2019-02-09T17:03:42.616Z,67.44
2019-02-09T17:06:14.343Z,67.56
2019-02-09T17:08:45.798Z,66.86
2019-02-09T17:11:17.211Z,66.91
2019-02-09T17:13:48.673Z,67.77
2019-02-09T17:16:20.087Z,67.88
2019-02-09T17:18:51.566Z,67.51
2019-02-09T17:21:23.026Z,68.75
2019-02-09T17:23:54.515Z,68.59
2019-02-09T17:26:25.914Z,68.72
2019-02-09T17:28:57.367Z,69.06
2019-02-09T17:31:28.790Z,68.94
2019-02-09T17:34:00.232Z,69.28
2019-02-09T17:36:31.652Z,69.41
2019-02-09T17:39:03.928Z,68.91
2019-02-09T17:41:37.000Z,68.95
2019-02-09T17:44:08.726Z,69.11
2019-02-09T17:46:40.293Z,69.37
2019-02-09T17:49:11.771Z,69.71
2019-02-09T17:51:43.200Z,69.60
2019-02-09T17:54:14.661Z,69.53
2019-02-09T17:56:46.099Z,69.75
2019-02-09T17:59:17.567Z,69.93
2019-02-09T18:01:49.017Z,69.86
2019-02-09T18:04:20.506Z,69.54
2019-02-09T18:06:52.050Z,69.68
2019-02-09T18:09:23.511Z,69.27
2019-02-09T18:11:54.935Z,68.99
2019-02-09T18:14:26.402Z,68.59
2019-02-09T18:16:57.821Z,69.19
2019-02-09T18:19:29.282Z,68.40
2019-02-09T18:22:00.711Z,68.77
2019-02-09T18:24:32.181Z,68.92
2019-02-09T18:27:03.605Z,68.90
2019-02-09T18:29:34.972Z,68.51
2019-02-09T18:32:06.579Z,67.60
2019-02-09T18:34:38.056Z,67.97
2019-02-09T18:37:09.504Z,67.57
2019-02-09T18:39:40.921Z,68.16
2019-02-09T18:42:12.425Z,68.10
2019-02-09T18:44:43.875Z,68.05
2019-02-09T18:47:15.309Z,67.47
2019-02-09T18:49:46.813Z,67.18
2019-02-09T18:52:19.856Z,66.91
2019-02-09T18:54:51.333Z,66.47
2019-02-09T18:57:22.871Z,66.54
2019-02-09T18:59:54.394Z,66.50
2019-02-09T19:02:25.947Z,66.02
2019-02-09T19:05:04.191Z,65.88
2019-02-09T19:07:30.514Z,65.74
2019-02-09T19:10:02.011Z,65.16
2019-02-09T19:12:33.765Z,65.39
2019-02-09T19:15:07.204Z,65.23
2019-02-09T19:17:38.698Z,65.21
2019-02-09T19:20:16.147Z,65.16
2019-02-09T19:22:47.679Z,64.82
2019-02-09T19:25:20.069Z,64.46
2019-02-09T19:27:51.537Z,64.81
2019-02-09T19:30:23.435Z,64.67
2019-02-09T19:32:55.104Z,64.83
2019-02-09T19:35:26.563Z,64.19
2019-02-09T19:37:57.989Z,64.64
2019-02-09T19:40:29.469Z,64.33
2019-02-09T19:43:00.935Z,64.35
2019-02-09T19:45:33.640Z,64.24
2019-02-09T19:48:08.705Z,64.60
2019-02-09T19:50:40.150Z,64.11
2019-02-09T19:53:11.577Z,64.16
2019-02-09T19:55:43.083Z,64.12
2019-02-09T19:58:14.523Z,64.48
2019-02-09T20:00:46.521Z,64.41
2019-02-09T20:03:17.969Z,64.57
2019-02-09T20:05:49.434Z,63.87
2019-02-09T20:08:20.853Z,63.86
2019-02-09T20:10:52.335Z,63.90
2019-02-09T20:13:23.771Z,64.25
2019-02-09T20:15:55.301Z,64.32
2019-02-09T20:18:26.729Z,63.96
2019-02-09T20:20:58.174Z,63.61
2019-02-09T20:23:29.572Z,63.77
2019-02-09T20:26:01.046Z,64.03
2019-02-09T20:28:32.599Z,63.42
2019-02-09T20:31:04.112Z,63.44
2019-02-09T20:33:35.599Z,62.99
2019-02-09T20:36:08.729Z,63.33
2019-02-09T20:38:40.363Z,62.72
2019-02-09T20:41:12.249Z,62.92
2019-02-09T20:43:43.797Z,62.51
2019-02-09T20:46:15.382Z,62.53
2019-02-09T20:48:46.834Z,62.67
2019-02-09T20:51:18.284Z,62.49
2019-02-09T20:53:49.723Z,62.98
2019-02-09T20:56:22.944Z,62.97
2019-02-09T20:58:54.458Z,63.52
2019-02-09T21:01:25.852Z,63.31
2019-02-09T21:03:57.296Z,63.62
2019-02-09T21:06:28.793Z,62.96
2019-02-09T21:09:00.279Z,62.82
2019-02-09T21:11:32.661Z,62.43
2019-02-09T21:14:04.094Z,62.76
2019-02-09T21:16:35.560Z,62.88
2019-02-09T21:19:06.908Z,63.04
2019-02-09T21:21:38.389Z,63.34
2019-02-09T21:24:09.830Z,63.48
2019-02-09T21:26:41.303Z,63.39
2019-02-09T21:29:12.736Z,63.10
2019-02-09T21:31:44.194Z,63.51
2019-02-09T21:34:15.616Z,64.06
2019-02-09T21:36:47.070Z,63.70
2019-02-09T21:39:18.490Z,63.49
2019-02-09T21:41:49.934Z,63.39
2019-02-09T21:44:21.371Z,63.54
2019-02-09T21:46:53.290Z,63.24
2019-02-09T21:49:24.852Z,62.71
2019-02-09T21:51:56.368Z,62.35
2019-02-09T21:54:27.874Z,62.71
2019-02-09T21:56:59.249Z,63.01
2019-02-09T21:59:30.679Z,62.63
2019-02-09T22:02:02.117Z,62.89
2019-02-09T22:04:33.629Z,64.08
2019-02-09T22:07:05.101Z,63.50
2019-02-09T22:09:36.503Z,63.64
2019-02-09T22:12:08.074Z,63.13
2019-02-09T22:14:39.689Z,63.23
2019-02-09T22:17:11.360Z,62.75
2019-02-09T22:19:42.858Z,63.43
2019-02-09T22:22:14.315Z,63.55
2019-02-09T22:24:45.785Z,63.76
2019-02-09T22:27:17.218Z,63.30
2019-02-09T22:29:50.409Z,63.77
2019-02-09T22:32:21.836Z,63.07
2019-02-09T22:34:53.262Z,63.43
2019-02-09T22:37:27.911Z,63.62
2019-02-09T22:39:59.401Z,63.81
2019-02-09T22:42:30.898Z,63.78
2019-02-09T22:45:03.924Z,63.78
2019-02-09T22:47:36.099Z,63.82
2019-02-09T22:50:18.951Z,64.08
2019-02-09T22:52:46.637Z,63.77
2019-02-09T22:55:18.662Z,64.06
2019-02-09T22:57:50.517Z,63.47
2019-02-09T23:00:55.463Z,64.24
2019-02-09T23:03:55.642Z,64.10
2019-02-09T23:06:57.132Z,64.36
2019-02-09T23:09:31.103Z,64.76
2019-02-09T23:12:02.514Z,65.39
2019-02-09T23:14:34.010Z,65.65
2019-02-09T23:17:05.368Z,65.44
2019-02-09T23:19:36.766Z,65.56
2019-02-09T23:22:08.187Z,65.37
2019-02-09T23:24:39.621Z,65.92
2019-02-09T23:27:11.058Z,66.51
2019-02-09T23:29:42.552Z,67.05
2019-02-09T23:32:14.007Z,66.98
2019-02-09T23:34:45.463Z,67.45
2019-02-09T23:37:16.810Z,67.89
2019-02-09T23:39:48.240Z,68.24
2019-02-09T23:42:19.730Z,68.54
2019-02-09T23:44:51.131Z,69.06
2019-02-09T23:47:22.549Z,69.02
2019-02-09T23:49:54.547Z,69.79
2019-02-09T23:52:26.098Z,69.12
2019-02-09T23:54:57.549Z,69.73
2019-02-09T23:57:28.985Z,69.58
